Time;durP1;ratioP1;P1;durP2;ratioP2;P2;SDS_P1;SDS_P2;PMS_P1;PMS_P2;Temp;Humidity;BMP_temperature;BMP_pressure;BME280_temperature;BME280_humidity;BME280_pressure;Samples;Min_cycle;Max_cycle;Signal;HPM_P1;HPM_P2
2021/02/25 00:01:31;;;;;;;0.50;0.50;;;;;;;11.42;52.95;98132.81;299395;291;63018;-55
2021/02/25 00:06:36;;;;;;;0.50;0.50;;;;;;;11.38;52.91;98124.38;299395;199;63005;-55
2021/02/25 00:11:38;;;;;;;0.50;0.50;;;;;;;11.36;52.83;98125.72;299395;250;63009;-55
2021/02/25 00:16:39;;;;;;;0.50;0.50;;;;;;;11.39;52.56;98125.19;299395;262;63004;-55
2021/02/25 00:21:40;;;;;;;0.60;0.60;;;;;;;11.39;52.16;98117.87;299395;269;63009;-56
2021/02/25 00:26:41;;;;;;;0.50;0.50;;;;;;;11.46;51.81;98120.28;299395;212;63005;-57
2021/02/25 00:31:42;;;;;;;0.50;0.50;;;;;;;11.43;52.30;98114.62;299395;226;63009;-56
2021/02/25 00:36:43;;;;;;;0.55;0.55;;;;;;;11.41;51.84;98112.97;299395;232;63005;-55
2021/02/25 00:41:44;;;;;;;0.50;0.50;;;;;;;11.35;51.96;98116.75;299395;206;63009;-54
2021/02/25 00:46:45;;;;;;;0.50;0.50;;;;;;;11.27;52.00;98122.72;299395;250;63004;-55
2021/02/25 00:51:46;;;;;;;0.50;0.50;;;;;;;11.22;52.23;98111.81;299395;198;63009;-56
2021/02/25 00:56:47;;;;;;;0.50;0.50;;;;;;;11.19;52.10;98120.50;299395;204;63011;-55
2021/02/25 01:01:50;;;;;;;0.50;0.50;;;;;;;11.08;52.67;98116.13;299395;204;63009;-55
2021/02/25 01:06:51;;;;;;;0.50;0.50;;;;;;;11.05;52.21;98113.94;299395;239;63005;-56
2021/02/25 01:11:55;;;;;;;0.50;0.50;;;;;;;11.06;52.30;98110.16;299395;209;63009;-56
2021/02/25 01:16:56;;;;;;;0.50;0.50;;;;;;;10.99;52.49;98120.44;299417;221;63004;-54
2021/02/25 01:21:57;;;;;;;0.60;0.60;;;;;;;11.00;51.91;98117.47;299395;244;63009;-54
2021/02/25 01:26:58;;;;;;;0.50;0.50;;;;;;;10.96;52.58;98110.09;299395;253;63005;-56
2021/02/25 01:31:59;;;;;;;0.50;0.50;;;;;;;10.94;52.38;98106.84;299395;202;63008;-55
2021/02/25 01:37:02;;;;;;;0.50;0.50;;;;;;;10.85;52.62;98113.84;299395;224;63004;-57
2021/02/25 01:42:05;;;;;;;0.50;0.50;;;;;;;10.83;52.32;98110.59;299417;203;63009;-55
2021/02/25 01:47:06;;;;;;;0.50;0.50;;;;;;;10.75;52.84;98115.44;299395;197;63004;-55
2021/02/25 01:52:07;;;;;;;0.50;0.50;;;;;;;10.68;52.78;98108.63;299395;236;63009;-56
2021/02/25 01:57:08;;;;;;;0.50;0.50;;;;;;;10.62;53.00;98099.62;299395;313;63013;-54
2021/02/25 02:02:11;;;;;;;0.50;0.50;;;;;;;10.65;52.72;98090.97;299395;220;63008;-55
2021/02/25 02:07:12;;;;;;;0.60;0.60;;;;;;;10.60;53.56;98100.97;299395;269;63004;-56
2021/02/25 02:12:15;;;;;;;0.60;0.60;;;;;;;10.58;53.07;98098.53;299395;235;63009;-55
2021/02/25 02:17:16;;;;;;;0.50;0.50;;;;;;;10.62;52.99;98099.62;299395;199;63004;-56
2021/02/25 02:22:23;;;;;;;0.50;0.50;;;;;;;10.64;51.98;98085.81;299395;257;63009;-55
2021/02/25 02:27:24;;;;;;;0.50;0.50;;;;;;;10.57;52.50;98088.75;299395;227;63005;-55
2021/02/25 02:32:26;;;;;;;0.50;0.50;;;;;;;10.51;52.76;98092.50;299395;232;63019;-56
2021/02/25 02:37:27;;;;;;;0.50;0.50;;;;;;;10.34;53.79;98100.03;299395;212;63004;-55
2021/02/25 02:42:28;;;;;;;0.50;0.50;;;;;;;10.12;54.79;98104.69;299395;262;63009;-54
2021/02/25 02:47:29;;;;;;;0.50;0.50;;;;;;;9.92;55.71;98100.78;299395;229;63004;-55
2021/02/25 02:52:30;;;;;;;0.50;0.50;;;;;;;9.83;55.75;98106.91;299395;228;63009;-56
2021/02/25 02:57:31;;;;;;;0.60;0.60;;;;;;;9.77;55.77;98102.53;299395;281;63005;-55
2021/02/25 03:02:32;;;;;;;0.50;0.50;;;;;;;9.70;56.45;98108.19;299395;256;63009;-56
2021/02/25 03:07:33;;;;;;;0.50;0.50;;;;;;;9.60;56.35;98108.09;299395;322;63004;-56
2021/02/25 03:12:35;;;;;;;0.50;0.50;;;;;;;9.60;56.07;98105.38;299395;226;63009;-57
2021/02/25 03:17:37;;;;;;;0.50;0.50;;;;;;;9.66;54.83;98107.06;299395;217;63005;-56
2021/02/25 03:22:38;;;;;;;0.50;0.50;;;;;;;9.72;54.33;98100.59;299395;199;63009;-55
2021/02/25 03:27:40;;;;;;;0.50;0.50;;;;;;;9.75;54.31;98084.62;299395;233;63005;-55
2021/02/25 03:32:41;;;;;;;0.50;0.50;;;;;;;9.81;53.82;98093.63;299395;219;63009;-56
2021/02/25 03:37:42;;;;;;;0.50;0.50;;;;;;;9.85;53.65;98089.31;299395;211;63004;-55
2021/02/25 03:42:43;;;;;;;0.50;0.50;;;;;;;9.91;53.00;98088.28;299395;218;63009;-56
2021/02/25 03:47:45;;;;;;;0.50;0.50;;;;;;;9.95;53.11;98097.53;299395;209;63012;-54
2021/02/25 03:52:47;;;;;;;0.50;0.50;;;;;;;9.93;53.09;98101.59;299395;254;63009;-57
2021/02/25 03:57:48;;;;;;;0.50;0.50;;;;;;;9.95;52.48;98102.16;299395;248;63005;-55
2021/02/25 04:02:49;;;;;;;0.60;0.60;;;;;;;9.99;52.56;98104.09;299395;202;63009;-56
2021/02/25 04:07:50;;;;;;;0.50;0.50;;;;;;;10.06;51.80;98096.53;299395;209;63004;-55
2021/02/25 04:12:52;;;;;;;0.50;0.50;;;;;;;10.09;51.52;98101.44;299395;237;63009;-55
2021/02/25 04:17:53;;;;;;;0.50;0.50;;;;;;;10.06;51.74;98096.53;299395;234;63005;-56
2021/02/25 04:22:53;;;;;;;0.50;0.50;;;;;;;9.95;52.95;98107.56;299395;253;63009;-55
2021/02/25 04:27:54;;;;;;;0.50;0.50;;;;;;;9.92;52.04;98100.78;299395;263;63005;-56
2021/02/25 04:32:55;;;;;;;0.50;0.50;;;;;;;9.92;52.26;98083.69;299395;209;63009;-54
2021/02/25 04:37:57;;;;;;;0.50;0.50;;;;;;;9.96;51.53;98085.63;299394;196;64004;-55
2021/02/25 04:42:58;;;;;;;0.50;0.50;;;;;;;9.94;51.58;98082.34;299395;229;63009;-55
2021/02/25 04:47:59;;;;;;;0.60;0.60;;;;;;;9.83;51.96;98086.06;299395;235;63005;-54
2021/02/25 04:53:00;;;;;;;0.50;0.50;;;;;;;9.68;53.14;98083.22;299395;276;63017;-56
2021/02/25 04:58:01;;;;;;;0.60;0.60;;;;;;;9.48;53.70;98083.03;299395;202;63005;-55
2021/02/25 05:03:03;;;;;;;0.60;0.60;;;;;;;9.29;54.65;98078.00;299395;228;63009;-57
2021/02/25 05:08:05;;;;;;;0.50;0.50;;;;;;;9.14;55.02;98088.66;299395;229;63004;-54
2021/02/25 05:13:09;;;;;;;0.50;0.50;;;;;;;9.04;55.56;98088.53;299395;272;63009;-55
2021/02/25 05:18:30;;;;;;;0.60;0.60;;;;;;;8.80;56.52;98092.59;299417;317;63005;-54
2021/02/25 05:23:31;;;;;;;0.50;0.50;;;;;;;8.64;56.82;98089.69;299395;223;63008;-57
2021/02/25 05:28:41;;;;;;;0.50;0.50;;;;;;;8.55;57.67;98091.19;299395;211;63004;-53
2021/02/25 05:33:42;;;;;;;0.50;0.50;;;;;;;8.49;58.04;98092.19;299395;221;63009;-54
2021/02/25 05:38:42;;;;;;;0.50;0.50;;;;;;;8.26;58.55;98103.19;299395;234;63004;-54
2021/02/25 05:43:45;;;;;;;0.50;0.50;;;;;;;8.19;59.13;98102.56;299395;216;63009;-54
2021/02/25 05:48:48;;;;;;;0.50;0.50;;;;;;;8.02;60.02;98097.16;299395;198;63005;-54
2021/02/25 05:53:49;;;;;;;0.50;0.50;;;;;;;7.87;60.67;98095.03;299395;261;63008;-55
2021/02/25 05:58:50;;;;;;;0.50;0.50;;;;;;;8.06;58.76;98088.31;299395;222;63004;-57
2021/02/25 06:03:51;;;;;;;0.60;0.60;;;;;;;8.24;58.75;98094.53;299395;227;63009;-55
2021/02/25 06:08:52;;;;;;;0.50;0.50;;;;;;;8.19;58.68;98092.56;299395;230;63005;-53
2021/02/25 06:13:53;;;;;;;0.60;0.60;;;;;;;8.34;57.05;98089.25;299395;216;63009;-56
2021/02/25 06:18:54;;;;;;;0.60;0.60;;;;;;;8.56;56.38;98086.59;299395;208;63005;-55
2021/02/25 06:23:56;;;;;;;0.50;0.50;;;;;;;8.49;57.67;98091.38;299395;221;63009;-55
2021/02/25 06:29:13;;;;;;;0.50;0.50;;;;;;;8.22;58.66;98096.66;299395;276;63004;-53
2021/02/25 06:34:22;;;;;;;0.50;0.50;;;;;;;8.11;59.14;98094.84;299395;294;63009;-56
2021/02/25 06:39:28;;;;;;;0.60;0.60;;;;;;;8.03;59.39;98091.50;299395;232;63011;-54
2021/02/25 06:44:38;;;;;;;0.60;0.60;;;;;;;7.90;59.82;98096.44;299395;202;63009;-53
2021/02/25 06:49:41;;;;;;;0.60;0.60;;;;;;;7.90;60.06;98099.97;299395;216;63005;-54
2021/02/25 06:54:43;;;;;;;0.50;0.50;;;;;;;7.87;60.65;98094.22;299395;233;63009;-54
2021/02/25 06:59:46;;;;;;;0.50;0.50;;;;;;;8.00;59.76;98100.09;299395;250;63009;-54
2021/02/25 07:04:50;;;;;;;0.50;0.50;;;;;;;8.10;59.28;98104.03;299395;231;63009;-56
2021/02/25 07:09:52;;;;;;;0.60;0.60;;;;;;;8.13;59.26;98103.53;299418;209;63005;-53
2021/02/25 07:14:53;;;;;;;0.50;0.50;;;;;;;8.07;59.80;98108.88;299396;253;63008;-55
2021/02/25 07:19:56;;;;;;;0.60;0.60;;;;;;;7.99;59.52;98103.87;299396;227;63004;-54
2021/02/25 07:25:44;;;;;;;0.60;0.60;;;;;;;8.04;59.62;98111.25;299396;197;63009;-53
2021/02/25 07:30:50;;;;;;;0.50;0.50;;;;;;;8.20;58.95;98115.81;299395;283;64004;-55
2021/02/25 07:35:57;;;;;;;0.50;0.50;;;;;;;8.38;58.66;98120.16;299396;277;63009;-54
2021/02/25 07:41:06;;;;;;;0.50;0.50;;;;;;;8.55;57.38;98112.84;299396;218;63005;-54
2021/02/25 07:46:07;;;;;;;0.60;0.60;;;;;;;8.75;57.21;98123.09;299396;280;63009;-54
2021/02/25 07:51:29;;;;;;;0.60;0.60;;;;;;;8.95;56.47;98122.56;299397;239;63004;-55
2021/02/25 07:56:32;;;;;;;0.60;0.60;;;;;;;9.20;55.73;98113.91;299397;242;63009;-54
2021/02/25 08:01:51;;;;;;;0.60;0.60;;;;;;;9.47;55.30;98113.91;299396;220;63005;-54
2021/02/25 08:06:52;;;;;;;0.60;0.60;;;;;;;9.69;54.49;98117.38;299396;211;63008;-55
2021/02/25 08:11:54;;;;;;;0.50;0.50;;;;;;;10.03;53.73;98116.06;299396;203;63004;-54
2021/02/25 08:17:29;;;;;;;0.60;0.60;;;;;;;10.27;53.66;98115.69;299396;260;63009;-55
2021/02/25 08:22:56;;;;;;;0.60;0.60;;;;;;;10.57;51.98;98099.59;299418;251;63004;-56
2021/02/25 08:28:34;;;;;;;0.50;0.50;;;;;;;10.79;51.78;98104.03;299396;219;63004;-53
2021/02/25 08:33:35;;;;;;;0.60;0.60;;;;;;;11.05;50.63;98097.66;299396;244;63009;-54
2021/02/25 08:38:37;;;;;;;0.60;0.60;;;;;;;11.19;50.36;98092.53;299396;237;63005;-55
2021/02/25 08:43:38;;;;;;;0.50;0.50;;;;;;;11.42;50.23;98092.06;299397;211;63009;-54
2021/02/25 08:48:40;;;;;;;0.50;0.50;;;;;;;11.67;49.54;98093.97;299397;219;63005;-54
2021/02/25 08:53:41;;;;;;;0.50;0.50;;;;;;;11.89;48.89;98089.13;299395;205;63009;-55
2021/02/25 08:58:42;;;;;;;0.50;0.50;;;;;;;12.15;47.90;98089.09;299394;212;63011;-54
2021/02/25 09:03:43;;;;;;;0.50;0.50;;;;;;;12.22;48.36;98090.47;299395;262;63009;-54
2021/02/25 09:08:44;;;;;;;0.50;0.50;;;;;;;12.21;49.20;98088.00;299395;216;63005;-54
2021/02/25 09:13:45;;;;;;;0.50;0.50;;;;;;;12.42;47.91;98084.19;299395;198;63009;-53
2021/02/25 09:18:48;;;;;;;0.50;0.50;;;;;;;12.71;47.29;98087.09;299395;228;63005;-53
2021/02/25 09:23:56;;;;;;;0.50;0.50;;;;;;;12.94;46.95;98091.09;299417;224;63009;-56
2021/02/25 09:28:59;;;;;;;0.50;0.50;;;;;;;12.98;47.40;98094.87;299395;254;63004;-54
2021/02/25 09:34:04;;;;;;;0.50;0.50;;;;;;;13.07;47.52;98107.66;299395;294;63009;-56
2021/02/25 09:39:26;;;;;;;0.50;0.50;;;;;;;13.00;48.93;98117.22;299395;197;63005;-57
2021/02/25 09:44:34;;;;;;;0.50;0.50;;;;;;;13.05;47.73;98109.84;299395;219;63008;-55
2021/02/25 09:49:35;;;;;;;0.50;0.50;;;;;;;13.05;47.73;98098.94;299395;336;63004;-56
2021/02/25 09:54:44;;;;;;;0.50;0.50;;;;;;;13.16;47.24;98096.22;299395;229;63009;-54
2021/02/25 09:59:58;;;;;;;0.50;0.50;;;;;;;13.16;47.37;98094.31;299395;243;63004;-53
2021/02/25 10:05:20;;;;;;;0.50;0.50;;;;;;;13.24;47.12;98099.16;299395;200;63009;-54
2021/02/25 10:11:05;;;;;;;0.50;0.50;;;;;;;13.39;47.33;98096.34;299394;209;64005;-53
2021/02/25 10:16:18;;;;;;;0.50;0.50;;;;;;;13.56;46.68;98089.69;299417;255;63009;-57
2021/02/25 10:21:25;;;;;;;0.50;0.50;;;;;;;13.75;47.56;98087.94;299395;241;63004;-54
2021/02/25 10:26:31;;;;;;;0.50;0.50;;;;;;;13.96;46.57;98092.12;299395;257;63009;-54
2021/02/25 10:31:32;;;;;;;0.50;0.50;;;;;;;14.21;46.36;98087.53;299395;214;63005;-53
2021/02/25 10:36:34;;;;;;;0.50;0.50;;;;;;;14.38;44.90;98082.47;299395;328;63004;-53
2021/02/25 10:41:35;;;;;;;0.50;0.50;;;;;;;14.53;44.97;98081.53;299395;269;63004;-54
2021/02/25 10:46:36;;;;;;;0.50;0.50;;;;;;;14.70;44.52;98077.22;299395;273;63009;-56
2021/02/25 10:51:36;;;;;;;0.50;0.50;;;;;;;14.81;44.21;98075.19;299395;220;63004;-54
2021/02/25 10:56:38;;;;;;;0.50;0.50;;;;;;;14.97;43.32;98075.81;299395;202;63009;-56
2021/02/25 11:01:38;;;;;;;0.50;0.50;;;;;;;15.11;42.55;98068.53;299396;220;63005;-58
2021/02/25 11:06:40;;;;;;;0.50;0.50;;;;;;;15.22;41.97;98059.09;299395;199;63008;-53
2021/02/25 11:11:41;;;;;;;0.50;0.50;;;;;;;15.30;40.34;98050.22;299395;229;63004;-54
2021/02/25 11:16:42;;;;;;;0.50;0.50;;;;;;;15.48;40.49;98039.59;299395;220;63009;-55
2021/02/25 11:21:44;;;;;;;0.40;0.40;;;;;;;15.60;40.63;98050.91;299395;198;63011;-54
2021/02/25 11:26:45;;;;;;;0.50;0.50;;;;;;;15.65;40.03;98039.88;299395;258;63009;-53
2021/02/25 11:31:46;;;;;;;0.50;0.50;;;;;;;15.70;37.60;98021.47;299395;238;63005;-53
2021/02/25 11:36:50;;;;;;;0.50;0.50;;;;;;;15.80;37.03;98014.22;299395;214;63018;-53
2021/02/25 11:41:51;;;;;;;0.50;0.50;;;;;;;15.86;38.17;98008.34;299439;243;63004;-57
2021/02/25 11:46:55;;;;;;;0.50;0.50;;;;;;;16.04;35.98;97992.97;299395;255;63009;-54
2021/02/25 11:51:58;;;;;;;0.50;0.50;;;;;;;16.09;36.77;97990.97;299417;229;63005;-57
2021/02/25 11:57:00;;;;;;;1.00;1.00;;;;;;;16.12;35.96;97983.25;299417;214;63009;-55
2021/02/25 12:02:01;;;;;;;0.50;0.50;;;;;;;16.20;36.82;97985.31;299373;229;63005;-54
2021/02/25 12:07:01;;;;;;;0.40;0.40;;;;;;;16.30;38.02;97980.44;299395;212;63009;-54
2021/02/25 12:12:03;;;;;;;0.50;0.50;;;;;;;16.52;36.84;97971.53;299395;238;63014;-53
2021/02/25 12:17:04;;;;;;;0.40;0.40;;;;;;;16.53;35.41;97953.97;299395;199;63009;-54
2021/02/25 12:22:05;;;;;;;0.50;0.50;;;;;;;16.57;35.58;97948.69;299395;250;63005;-57
2021/02/25 12:27:10;;;;;;;0.50;0.50;;;;;;;16.72;36.84;97938.22;299395;212;63009;-58
2021/02/25 12:32:12;;;;;;;0.50;0.50;;;;;;;16.69;36.30;97924.34;299395;206;63005;-53
2021/02/25 12:37:13;;;;;;;0.50;0.50;;;;;;;16.82;36.73;97922.69;299395;227;63009;-56
2021/02/25 12:42:16;;;;;;;0.50;0.50;;;;;;;16.82;37.64;97923.50;299395;290;63004;-52
2021/02/25 12:47:17;;;;;;;0.50;0.50;;;;;;;16.85;39.65;97924.81;299395;234;63009;-59
2021/02/25 12:52:19;;;;;;;0.50;0.50;;;;;;;16.98;39.55;97918.50;299395;279;63005;-54
2021/02/25 12:57:20;;;;;;;0.50;0.50;;;;;;;16.93;40.43;97904.91;299395;221;63009;-58
2021/02/25 13:02:23;;;;;;;0.50;0.50;;;;;;;17.00;40.88;97905.28;299395;222;63005;-56
2021/02/25 13:07:27;;;;;;;0.40;0.40;;;;;;;17.08;40.01;97897.13;299395;223;63009;-54
2021/02/25 13:12:29;;;;;;;0.50;0.50;;;;;;;17.03;41.39;97899.16;299395;234;63004;-54
2021/02/25 13:17:34;;;;;;;0.40;0.40;;;;;;;17.12;40.72;97886.34;299395;202;63009;-54
2021/02/25 13:22:35;;;;;;;0.40;0.40;;;;;;;17.13;40.77;97874.25;299395;222;63005;-57
2021/02/25 13:27:36;;;;;;;0.50;0.50;;;;;;;17.06;39.87;97871.12;299395;209;63008;-54
2021/02/25 13:32:37;;;;;;;0.50;0.50;;;;;;;17.08;39.94;97871.62;299395;196;63004;-55
2021/02/25 13:37:39;;;;;;;0.50;0.50;;;;;;;17.17;38.85;97867.03;299395;215;63009;-52
2021/02/25 13:42:40;;;;;;;0.50;0.50;;;;;;;17.31;38.52;97866.97;299395;214;63004;-54
2021/02/25 13:47:41;;;;;;;0.50;0.50;;;;;;;17.31;37.57;97869.72;299395;217;63009;-54
2021/02/25 13:52:43;;;;;;;0.50;0.50;;;;;;;17.41;37.60;97858.47;299395;233;63010;-57
2021/02/25 13:57:45;;;;;;;0.50;0.50;;;;;;;17.52;36.85;97864.50;299395;206;63008;-57
2021/02/25 14:02:46;;;;;;;0.50;0.50;;;;;;;17.50;36.56;97855.78;299395;217;63004;-59
2021/02/25 14:07:48;;;;;;;0.50;0.50;;;;;;;17.63;35.59;97841.16;299395;224;63009;-60
2021/02/25 14:12:49;;;;;;;0.40;0.40;;;;;;;17.66;35.18;97849.63;299395;222;63004;-67
2021/02/25 14:17:50;;;;;;;0.50;0.50;;;;;;;17.68;34.80;97841.03;299395;237;63009;-66
2021/02/25 14:22:51;;;;;;;0.50;0.50;;;;;;;17.65;35.29;97842.50;299395;218;63005;-63
2021/02/25 14:27:55;;;;;;;0.50;0.50;;;;;;;17.67;35.00;97831.22;299395;226;63008;-60
2021/02/25 14:33:01;;;;;;;0.50;0.50;;;;;;;17.68;34.80;97838.28;299395;210;63004;-65
2021/02/25 14:38:05;;;;;;;0.50;0.50;;;;;;;17.69;35.06;97834.44;299395;206;63009;-62
2021/02/25 14:43:09;;;;;;;;;;;;;;;17.69;33.54;97824.25;299996;983;6000;-61
2021/02/25 14:48:11;;;;;;;0.50;0.50;;;;;;;17.77;33.47;97822.69;299400;227;63004;-62
2021/02/25 14:53:12;;;;;;;0.40;0.40;;;;;;;17.82;33.37;97825.28;299395;222;63009;-55
2021/02/25 14:58:15;;;;;;;0.50;0.50;;;;;;;18.16;30.01;97810.06;299395;215;63005;-55
2021/02/25 15:03:19;;;;;;;0.40;0.40;;;;;;;18.20;30.12;97808.28;299395;218;63009;-55
2021/02/25 15:08:20;;;;;;;;;;;;;;;18.19;30.56;97817.66;299996;982;6000;-56
2021/02/25 15:13:21;;;;;;;0.50;0.50;;;;;;;18.35;26.27;97803.16;299400;301;63005;-56
2021/02/25 15:18:25;;;;;;;0.40;0.40;;;;;;;18.37;28.20;97805.56;299395;226;63009;-57
2021/02/25 15:23:26;;;;;;;0.40;0.40;;;;;;;18.31;27.56;97812.34;299395;227;63005;-56
2021/02/25 15:28:28;;;;;;;0.40;0.40;;;;;;;18.36;26.88;97809.47;299395;222;63009;-55
2021/02/25 15:33:28;;;;;;;0.40;0.40;;;;;;;18.41;33.89;97845.81;299395;353;63004;-58
2021/02/25 15:38:30;;;;;;;0.40;0.40;;;;;;;18.13;35.56;97849.13;299395;222;63009;-55
2021/02/25 15:43:31;;;;;;;0.40;0.40;;;;;;;17.86;36.39;97856.47;299395;215;63005;-61
2021/02/25 15:48:32;;;;;;;0.40;0.40;;;;;;;17.72;36.70;97855.75;299394;230;63997;-63
2021/02/25 15:53:34;;;;;;;0.40;0.40;;;;;;;17.56;37.34;97851.78;299395;229;63012;-64
2021/02/25 15:58:36;;;;;;;0.40;0.40;;;;;;;17.47;37.91;97865.44;299394;197;64009;-57
2021/02/25 16:03:38;;;;;;;0.85;0.85;;;;;;;17.28;38.49;97868.41;299395;202;63004;-64
2021/02/25 16:08:40;;;;;;;0.47;0.47;;;;;;;17.01;39.66;97868.50;299395;211;63009;-58
2021/02/25 16:13:41;;;;;;;0.50;0.50;;;;;;;16.70;40.40;97885.66;299395;303;63005;-57
2021/02/25 16:18:45;;;;;;;0.50;0.50;;;;;;;16.42;40.54;97879.41;299395;203;63008;-64
2021/02/25 16:23:46;;;;;;;0.50;0.50;;;;;;;16.21;41.08;97893.84;299417;252;63004;-58
2021/02/25 16:28:48;;;;;;;0.40;0.40;;;;;;;15.93;41.33;97888.34;299395;222;63009;-57
2021/02/25 16:33:53;;;;;;;0.50;0.50;;;;;;;15.68;41.97;97897.03;299395;270;63004;-57
2021/02/25 16:38:54;;;;;;;0.50;0.50;;;;;;;15.37;43.15;97894.78;299395;217;63009;-57
2021/02/25 16:43:58;;;;;;;0.50;0.50;;;;;;;15.08;43.76;97896.91;299395;246;63005;-58
2021/02/25 16:49:01;;;;;;;0.50;0.50;;;;;;;14.75;44.82;97899.59;299395;203;63008;-57
2021/02/25 16:54:02;;;;;;;0.50;0.50;;;;;;;14.42;46.27;97906.06;299395;208;63004;-57
2021/02/25 16:59:07;;;;;;;0.50;0.50;;;;;;;14.11;46.76;97912.97;299395;252;63009;-57
2021/02/25 17:04:15;;;;;;;0.50;0.50;;;;;;;13.83;48.05;97923.66;299395;202;63004;-64
2021/02/25 17:09:22;;;;;;;0.50;0.50;;;;;;;13.69;47.91;97919.97;299395;465;63028;-62
2021/02/25 17:14:24;;;;;;;0.50;0.50;;;;;;;13.59;50.69;97939.12;299395;239;63005;-63
2021/02/25 17:19:25;;;;;;;0.50;0.50;;;;;;;13.59;47.72;97933.69;299395;205;63008;-62
2021/02/25 17:24:26;;;;;;;0.50;0.50;;;;;;;13.47;48.30;97941.44;299395;234;63004;-62
2021/02/25 17:29:27;;;;;;;0.50;0.50;;;;;;;13.30;48.97;97937.22;299395;234;63009;-62
2021/02/25 17:34:40;;;;;;;0.50;0.50;;;;;;;13.13;49.24;97942.22;299395;236;63005;-56
2021/02/25 17:39:42;;;;;;;0.50;0.50;;;;;;;12.94;49.84;97954.88;299395;224;63009;-56
2021/02/25 17:44:43;;;;;;;0.50;0.50;;;;;;;12.79;50.52;97955.78;299395;216;63005;-55
2021/02/25 17:49:44;;;;;;;0.50;0.50;;;;;;;12.62;51.01;97961.59;299395;214;63009;-55
2021/02/25 17:54:45;;;;;;;0.50;0.50;;;;;;;12.47;51.85;97955.41;299395;222;63004;-55
2021/02/25 17:59:51;;;;;;;0.50;0.50;;;;;;;12.45;51.99;97963.06;299395;220;63009;-56
2021/02/25 18:04:54;;;;;;;0.50;0.50;;;;;;;12.37;51.88;97978.03;299395;247;63005;-56
2021/02/25 18:09:56;;;;;;;0.50;0.50;;;;;;;12.37;51.91;97983.47;299395;218;63009;-55
2021/02/25 18:15:02;;;;;;;0.50;0.50;;;;;;;12.40;52.15;97977.50;299395;214;63005;-55
2021/02/25 18:20:09;;;;;;;0.50;0.50;;;;;;;12.24;52.70;97968.53;299395;203;63009;-53
2021/02/25 18:25:14;;;;;;;0.50;0.50;;;;;;;12.18;53.07;97979.72;299395;244;63004;-55
2021/02/25 18:30:25;;;;;;;0.50;0.50;;;;;;;12.13;53.11;97982.47;299395;225;63009;-55
2021/02/25 18:35:32;;;;;;;0.50;0.50;;;;;;;12.03;53.35;97975.97;299395;208;63005;-55
2021/02/25 18:40:33;;;;;;;0.50;0.50;;;;;;;11.99;53.08;97979.50;299395;339;63008;-56
2021/02/25 18:45:36;;;;;;;0.50;0.50;;;;;;;11.91;53.28;97959.13;299395;208;63004;-54
2021/02/25 18:50:37;;;;;;;0.50;0.50;;;;;;;11.88;53.29;97958.84;299395;211;63009;-54
2021/02/25 18:55:42;;;;;;;0.50;0.50;;;;;;;11.85;53.33;97960.22;299395;208;63004;-56
2021/02/25 19:00:46;;;;;;;0.50;0.50;;;;;;;11.83;54.06;97978.72;299417;247;63009;-55
2021/02/25 19:05:49;;;;;;;0.50;0.50;;;;;;;11.74;54.04;97980.34;299395;218;63005;-55
2021/02/25 19:10:50;;;;;;;0.50;0.50;;;;;;;11.53;54.33;97981.44;299395;231;63008;-56
2021/02/25 19:15:55;;;;;;;0.50;0.50;;;;;;;11.35;54.56;97983.63;299395;208;63004;-55
2021/02/25 19:21:05;;;;;;;0.50;0.50;;;;;;;11.28;55.04;97983.06;299395;259;63009;-56
2021/02/25 19:26:11;;;;;;;0.60;0.60;;;;;;;11.33;55.50;97988.50;299395;253;63004;-61
2021/02/25 19:31:15;;;;;;;0.50;0.50;;;;;;;11.34;55.16;97981.16;299395;270;63009;-55
2021/02/25 19:36:23;;;;;;;0.50;0.50;;;;;;;11.31;55.41;97990.66;299417;226;63005;-55
2021/02/25 19:41:29;;;;;;;0.50;0.50;;;;;;;11.31;55.49;97987.97;299396;225;63008;-55
2021/02/25 19:46:38;;;;;;;0.50;0.50;;;;;;;11.31;55.10;97987.97;299396;237;63004;-55
2021/02/25 19:51:40;;;;;;;0.50;0.50;;;;;;;11.28;55.54;97987.69;299396;218;63009;-55
2021/02/25 19:56:45;;;;;;;0.60;0.60;;;;;;;11.30;55.17;97991.75;299396;204;63005;-56
2021/02/25 20:01:51;;;;;;;0.50;0.50;;;;;;;11.31;55.48;97989.84;299418;239;63009;-56
2021/02/25 20:07:11;;;;;;;0.50;0.50;;;;;;;11.33;55.33;97993.94;299396;197;63005;-57
2021/02/25 20:12:19;;;;;;;0.50;0.50;;;;;;;11.33;54.73;97999.38;299396;206;63009;-56
2021/02/25 20:17:27;;;;;;;0.50;0.50;;;;;;;11.32;54.33;98005.88;299396;202;63004;-56
2021/02/25 20:22:31;;;;;;;0.50;0.50;;;;;;;11.28;54.55;98010.22;299396;249;63009;-56
2021/02/25 20:27:33;;;;;;;0.50;0.50;;;;;;;11.16;55.07;98017.81;299419;218;63005;-54
2021/02/25 20:32:34;;;;;;;0.50;0.50;;;;;;;11.12;55.10;98016.72;299397;196;63009;-54
2021/02/25 20:37:35;;;;;;;0.50;0.50;;;;;;;11.16;54.82;98008.84;299397;203;63004;-56
2021/02/25 20:42:36;;;;;;;0.50;0.50;;;;;;;11.16;54.49;98015.09;299396;242;63009;-55
2021/02/25 20:47:40;;;;;;;0.50;0.50;;;;;;;11.13;54.59;98006.66;299397;238;63009;-55
2021/02/25 20:52:43;;;;;;;0.50;0.50;;;;;;;11.14;54.74;98017.25;299418;202;63009;-56
2021/02/25 20:57:44;;;;;;;0.50;0.50;;;;;;;11.16;54.24;98012.37;299396;275;63005;-55
2021/02/25 21:02:45;;;;;;;0.55;0.55;;;;;;;11.13;55.60;98017.53;299396;196;63008;-55
2021/02/25 21:07:47;;;;;;;0.60;0.60;;;;;;;11.18;53.88;98021.06;299396;228;63004;-54
2021/02/25 21:12:48;;;;;;;0.50;0.50;;;;;;;11.16;54.00;98009.66;299396;240;63009;-54
2021/02/25 21:17:49;;;;;;;0.50;0.50;;;;;;;11.08;54.16;98016.47;299396;287;63004;-55
2021/02/25 21:22:50;;;;;;;0.50;0.50;;;;;;;11.16;53.80;98023.25;299397;209;63009;-54
2021/02/25 21:27:51;;;;;;;0.50;0.50;;;;;;;11.25;53.07;98016.19;299395;220;63005;-56
2021/02/25 21:32:52;;;;;;;0.50;0.50;;;;;;;11.27;52.98;98018.66;299395;204;63004;-54
2021/02/25 21:37:56;;;;;;;0.50;0.50;;;;;;;11.27;52.85;98016.75;299395;206;63004;-56
2021/02/25 21:42:57;;;;;;;0.50;0.50;;;;;;;11.24;53.52;98016.47;299417;251;63009;-54
2021/02/25 21:47:59;;;;;;;0.50;0.50;;;;;;;11.12;53.73;98016.72;299395;224;63012;-55
2021/02/25 21:53:00;;;;;;;0.50;0.50;;;;;;;11.03;53.96;98019.16;299393;235;64009;-55
2021/02/25 21:58:02;;;;;;;0.50;0.50;;;;;;;10.98;54.43;98026.47;299395;264;63005;-55
2021/02/25 22:03:04;;;;;;;0.50;0.50;;;;;;;10.97;54.67;98027.56;299395;300;63009;-54
2021/02/25 22:08:06;;;;;;;0.50;0.50;;;;;;;11.01;54.43;98021.31;299395;237;63004;-55
2021/02/25 22:13:07;;;;;;;0.50;0.50;;;;;;;11.13;54.22;98020.25;299395;287;63009;-55
2021/02/25 22:18:08;;;;;;;0.50;0.50;;;;;;;11.27;54.12;98024.91;299395;227;63001;-54
2021/02/25 22:23:08;;;;;;;0.60;0.60;;;;;;;11.42;53.46;98015.97;299395;196;63009;-54
2021/02/25 22:28:09;;;;;;;0.50;0.50;;;;;;;11.56;53.33;98010.78;299395;290;63005;-55
2021/02/25 22:33:10;;;;;;;0.50;0.50;;;;;;;11.63;52.75;98016.78;299395;203;63009;-56
2021/02/25 22:38:12;;;;;;;0.50;0.50;;;;;;;11.68;52.53;98014.88;299395;257;63004;-56
2021/02/25 22:43:13;;;;;;;0.50;0.50;;;;;;;11.70;52.45;98022.75;299395;255;63027;-56
2021/02/25 22:48:14;;;;;;;0.50;0.50;;;;;;;11.67;51.82;98013.25;299395;212;63005;-54
2021/02/25 22:53:15;;;;;;;0.50;0.50;;;;;;;11.78;49.57;98007.84;299395;214;63009;-55
2021/02/25 22:58:16;;;;;;;0.50;0.50;;;;;;;11.79;47.60;98004.81;299395;223;63005;-54
2021/02/25 23:03:17;;;;;;;0.50;0.50;;;;;;;11.82;46.92;98004.28;299395;218;63009;-56
2021/02/25 23:08:19;;;;;;;0.50;0.50;;;;;;;11.79;45.42;98012.97;299395;210;63004;-55
2021/02/25 23:13:21;;;;;;;0.50;0.50;;;;;;;11.65;44.68;98009.16;299395;204;63009;-55
2021/02/25 23:18:24;;;;;;;0.50;0.50;;;;;;;11.62;43.79;98020.56;299395;197;63005;-56
2021/02/25 23:23:28;;;;;;;0.50;0.50;;;;;;;11.48;44.58;98027.63;299395;246;63008;-57
2021/02/25 23:28:35;;;;;;;0.50;0.50;;;;;;;11.35;43.71;98037.97;299417;216;63004;-56
2021/02/25 23:33:36;;;;;;;0.50;0.50;;;;;;;11.25;44.14;98043.38;299395;261;63009;-56
2021/02/25 23:38:36;;;;;;;0.55;0.55;;;;;;;11.01;44.03;98036.81;299395;224;63004;-55
2021/02/25 23:43:41;;;;;;;0.50;0.50;;;;;;;10.96;42.76;98034.06;299395;197;63009;-57
2021/02/25 23:48:51;;;;;;;0.52;0.52;;;;;;;10.90;43.12;98032.41;299395;210;63005;-55
2021/02/25 23:53:52;;;;;;;0.60;0.60;;;;;;;10.86;43.10;98039.47;299395;230;63008;-55